Latest METAR Data

Below are the latest METARs ("Meteorological Services to Airmen Reports"), for RNAS Culdrose and Newquay Airport.

EGDR - RNAS Culdrose
Distance from station: SW 6mi, 9km
Updated: Sat, 15-May-2021 11:50pm BST
Partly Cloudy
Partly Cloudy
 Wind from SW
Wind: SW 9 mph , 15 km/h
Temperature: 50°F , 10°C
Wind Chill: 46°F , 8°C
Dew Point: 48°F , 9°C
Humidity: 94%
Barometer: 29.5 inHg , 999 hPa
Clouds: Partly Cloudy
Visibility: 6 miles , 10 km
Cloud details: Few Clouds 2400 ft
Partly Cloudy 5000 ft
2021/05/15 22:50 EGDR 152250Z AUTO 22008KT 9999 // FEW024/// SCT050/// 10/09 Q0999
EGHQ - Newquay Airport
Distance from station: NE 21mi, 34km
Updated: Sat, 15-May-2021 11:50pm BST
Few Clouds
Few Clouds
 Wind from SW
Wind: SW 10 mph , 17 km/h
Temperature: 50°F , 10°C
Wind Chill: 46°F , 8°C
Dew Point: 48°F , 9°C
Humidity: 94%
Barometer: 29.5 inHg , 999 hPa
Clouds: Few Clouds
Visibility: 6 miles , 10 km
Cloud details: Few Clouds 1200 ft
2021/05/15 22:50 EGHQ 152250Z AUTO 22009KT 9999 FEW012/// 10/09 Q0999
 
EGTE - Exeter Airport
Distance from station: ENE 88mi, 141km
Updated: Sat, 15-May-2021 4:20pm BST
NOT Current
Light rain, Showers, Partly cloudy
Light rain, Showers, Partly cloudy
 Wind from SSW
Wind: SSW 9 mph , 15 km/h
Temperature: 52°F , 11°C
Dew Point: 50°F , 10°C
Humidity: 94%
Barometer: 29.53 inHg , 1000 hPa
Summary: Light rain, Showers
Clouds: Partly Cloudy
Visibility: 6 miles , 10 km
Cloud details: Partly Cloudy 2500 ft
2021/05/15 15:20 EGTE 151520Z 21008KT 9999 8000N -SHRA SCT025CB 11/10 Q1000
EGHE - St Marys, IOS
Distance from station: W 51mi, 82km
Updated: Sat, 15-May-2021 5:20pm BST
NOT Current

 Wind from SW
Wind: SW 21 mph , 33 km/h
Visibility: 6 miles , 10 km
2021/05/15 16:20 EGHE 151620Z 23018KT 9999 FEW01 14/11 Q1000

Metar display script from Saratoga-Weather.org

 

 

UK - WEATHER STATION TOPSITES - UK World Weather Websites

Copyright © Carnkie Weather 2009 - 2021.